Bartonia, Indiana
Current Conditions -  °F | °C
As of 6:35 PM on Sunday 23 Nov 2014 (Local Time) from KVES Reporting Station
Moderate Rain Moderate Rain  
Wind Chill: 52°   Ceiling: 2400
Heat Index: 52°   Visibility: 7mi
Dew Point: 50°   Wind: 17mph
Humidity: 94%   Direction: 140°SE
Pressure: 29.48"   Gusts: 24mph
Location:  40.2091°N, 84.8536°W
Report Text: KVES 232335Z AUTO 14015G21KT 7SM RA OVC024 11/10 A2948 RMK AO2 P0003
Loading
Personal Weather Stations






























Interactive Weather Map New forecast layout! Learn more

10-Day Weather Forecast

Advertisements
Track Severe Weather on mobile